Time;durP1;ratioP1;P1;durP2;ratioP2;P2;SDS_P1;SDS_P2;PMS_P1;PMS_P2;Temp;Humidity;BMP_temperature;BMP_pressure;BME280_temperature;BME280_humidity;BME280_pressure;Samples;Min_cycle;Max_cycle;Signal;HPM_P1;HPM_P2
2022/08/07 00:01:01;;;;;;;7.07;5.20;;;17.00;1.40;;;18.16;100.00;95944.67;647557;216;31527;-71
2022/08/07 00:03:43;;;;;;;4.82;3.60;;;16.90;1.40;;;18.16;100.00;95943.73;647198;212;31573;-70
2022/08/07 00:06:25;;;;;;;5.37;4.18;;;16.90;1.40;;;18.08;100.00;95945.62;648970;216;31686;-70
2022/08/07 00:09:07;;;;;;;5.97;4.32;;;16.90;1.40;;;18.05;100.00;95946.95;645908;216;32293;-70
2022/08/07 00:11:49;;;;;;;6.15;4.40;;;16.90;1.40;;;18.07;100.00;95947.63;647726;212;31547;-70
2022/08/07 00:14:30;;;;;;;4.43;3.35;;;16.90;1.40;;;18.13;100.00;95952.09;646780;216;31569;-71
2022/08/07 00:17:12;;;;;;;6.12;3.80;;;16.80;1.40;;;18.16;100.00;95953.23;646796;212;31572;-71
2022/08/07 00:19:54;;;;;;;4.90;2.97;;;16.80;1.40;;;18.19;100.00;95952.85;652022;216;31798;-71
2022/08/07 00:22:35;;;;;;;6.95;3.55;;;16.80;1.40;;;18.19;100.00;95952.56;646269;213;31583;-70
2022/08/07 00:28:04;;;;;;;4.43;2.87;;;16.80;1.40;;;18.08;100.00;95951.92;621028;222;32087;-70
2022/08/07 00:30:46;;;;;;;4.37;3.10;;;16.70;1.40;;;18.07;100.00;95952.31;651677;216;31558;-70
2022/08/07 00:35:52;;;;;;;3.55;2.80;;;16.70;1.40;;;18.01;100.00;95947.09;647422;212;31562;-70
2022/08/07 00:38:38;;;;;;;4.03;2.83;;;16.60;1.40;;;17.68;100.00;95947.70;644481;216;31809;-70
2022/08/07 00:41:25;;;;;;;3.95;2.58;;;16.60;1.40;;;17.67;100.00;95942.60;636111;222;31722;-70
2022/08/07 00:44:06;;;;;;;3.03;2.12;;;16.60;1.40;;;17.53;100.00;95940.14;646503;212;31560;-70
2022/08/07 00:46:48;;;;;;;2.30;2.10;;;16.60;1.40;;;17.53;100.00;95938.36;620546;226;31919;-70
2022/08/07 00:49:30;;;;;;;2.53;1.98;;;16.60;1.40;;;17.50;100.00;95937.17;649829;216;31563;-70
2022/08/07 00:52:12;;;;;;;3.50;2.40;;;16.50;1.40;;;17.43;100.00;95935.98;650317;216;31601;-70
2022/08/07 00:54:53;;;;;;;1.58;1.20;;;16.50;1.40;;;17.44;100.00;95940.28;647288;216;31525;-70
2022/08/07 00:57:35;;;;;;;2.08;1.50;;;16.50;1.40;;;17.45;100.00;95936.58;643958;212;31535;-72
2022/08/07 01:02:54;;;;;;;2.55;1.65;;;16.50;1.40;;;17.32;100.00;95933.38;647800;216;31641;-70
2022/08/07 01:08:10;;;;;;;1.58;1.48;;;16.40;1.40;;;17.43;100.00;95932.70;649008;212;31579;-70
2022/08/07 01:10:52;;;;;;;2.15;1.50;;;16.40;1.40;;;17.37;100.00;95932.33;652505;216;31569;-70
2022/08/07 01:13:34;;;;;;;2.60;1.70;;;16.40;1.40;;;17.29;100.00;95933.09;647659;212;32214;-70
2022/08/07 01:16:15;;;;;;;2.65;1.85;;;16.40;1.40;;;17.33;100.00;95926.23;637669;212;31702;-70
2022/08/07 01:18:57;;;;;;;1.58;1.08;;;16.40;1.40;;;17.34;100.00;95924.39;644937;216;31507;-70
2022/08/07 01:21:39;;;;;;;1.77;1.60;;;16.30;1.40;;;17.25;100.00;95924.04;646783;216;32098;-70
2022/08/07 01:24:20;;;;;;;1.85;1.37;;;16.40;1.40;;;17.29;100.00;95919.28;647957;216;31576;-72
2022/08/07 01:27:05;;;;;;;3.50;1.50;;;16.40;1.40;;;17.31;100.00;95914.45;648996;212;35432;-70
2022/08/07 01:29:47;;;;;;;3.70;2.00;;;16.30;1.40;;;17.25;100.00;95917.27;621625;226;32034;-70
2022/08/07 01:32:28;;;;;;;1.92;1.40;;;16.20;1.40;;;17.26;100.00;95914.48;646088;216;31521;-70
2022/08/07 01:35:51;;;;;;;2.80;1.70;;;16.20;1.40;;;17.16;100.00;95910.43;649465;216;42177;-70
2022/08/07 01:38:32;;;;;;;3.10;1.50;;;16.20;1.40;;;17.08;100.00;95914.33;647603;216;31617;-70
2022/08/07 01:41:14;;;;;;;1.37;1.20;;;16.20;1.40;;;17.10;100.00;95918.75;652307;212;32174;-69
2022/08/07 01:43:56;;;;;;;1.70;1.50;;;16.20;1.40;;;17.14;100.00;95925.03;619512;226;31840;-70
2022/08/07 01:46:37;;;;;;;2.17;1.37;;;16.20;1.40;;;17.05;100.00;95922.42;648123;216;31510;-70
2022/08/07 01:49:19;;;;;;;5.85;1.40;;;16.20;1.40;;;17.02;100.00;95921.59;619533;222;31865;-70
2022/08/07 01:52:01;;;;;;;2.08;1.77;;;16.10;1.40;;;16.97;100.00;95916.63;652429;216;31507;-71
2022/08/07 01:54:42;;;;;;;2.03;1.40;;;16.00;1.40;;;16.96;100.00;95913.75;648096;216;31582;-71
2022/08/07 01:57:24;;;;;;;1.75;1.50;;;15.80;1.40;;;16.86;100.00;95915.17;645916;216;31508;-71
2022/08/07 02:00:07;;;;;;;3.67;1.40;;;15.80;1.40;;;16.82;100.00;95909.69;644980;216;31529;-70
2022/08/07 02:02:51;;;;;;;2.00;1.30;;;15.70;1.40;;;16.74;100.00;95903.90;648722;216;31455;-70
2022/08/07 02:05:39;;;;;;;2.10;1.40;;;15.60;1.40;;;16.73;100.00;95902.88;644841;216;31883;-70
2022/08/07 02:08:20;;;;;;;1.55;1.00;;;15.60;1.40;;;16.74;100.00;95904.93;618454;222;31899;-70
2022/08/07 02:11:02;;;;;;;3.40;1.60;;;15.50;1.40;;;16.66;100.00;95902.23;650162;212;31548;-70
2022/08/07 02:13:43;;;;;;;2.62;1.50;;;15.50;1.40;;;16.62;100.00;95900.74;654123;216;31518;-71
2022/08/07 02:16:25;;;;;;;1.90;1.55;;;15.40;1.40;;;16.55;100.00;95902.27;633797;212;32185;-70
2022/08/07 02:19:09;;;;;;;2.53;1.48;;;15.30;1.40;;;16.47;100.00;95900.14;648139;212;31486;-70
2022/08/07 02:21:50;;;;;;;2.00;1.30;;;15.30;1.40;;;16.41;100.00;95892.42;618668;226;31894;-72
2022/08/07 02:24:33;;;;;;;1.85;1.65;;;15.30;1.40;;;16.39;100.00;95890.33;646848;216;31542;-70
2022/08/07 02:27:14;;;;;;;1.30;0.93;;;15.20;1.40;;;16.38;100.00;95887.96;649623;216;31499;-70
2022/08/07 02:29:59;;;;;;;1.55;1.17;;;15.20;1.40;;;16.37;100.00;95880.77;642807;212;32060;-70
2022/08/07 02:32:41;;;;;;;1.70;1.30;;;15.20;1.40;;;16.31;100.00;95880.03;647327;216;31558;-72
2022/08/07 02:38:29;;;;;;;1.90;1.27;;;15.20;1.40;;;16.32;100.00;95874.25;644259;216;31563;-70
2022/08/07 02:41:10;;;;;;;2.20;1.30;;;15.30;1.40;;;16.30;100.00;95876.48;645940;216;31550;-70
2022/08/07 02:43:56;;;;;;;3.58;1.87;;;15.10;1.40;;;16.26;100.00;95879.56;655150;216;31512;-69
2022/08/07 02:46:38;;;;;;;2.20;1.47;;;15.20;1.40;;;16.20;100.00;95876.27;646888;212;31585;-70
2022/08/07 02:49:22;;;;;;;2.30;1.80;;;15.10;1.40;;;16.20;100.00;95877.30;644465;216;32137;-71
2022/08/07 02:52:04;;;;;;;2.45;1.48;;;15.10;1.40;;;16.20;100.00;95875.55;617476;226;31992;-70
2022/08/07 02:54:46;;;;;;;1.80;1.20;;;15.00;1.40;;;16.15;100.00;95872.10;648088;216;31510;-70
2022/08/07 02:57:27;;;;;;;1.17;0.98;;;15.10;1.40;;;16.12;100.00;95877.52;621253;226;32264;-70
2022/08/07 03:00:11;;;;;;;1.62;1.10;;;15.20;1.40;;;16.19;100.00;95878.34;650074;216;42179;-70
2022/08/07 03:02:53;;;;;;;1.10;1.00;;;15.20;1.40;;;16.11;100.00;95881.92;643651;216;32076;-71
2022/08/07 03:05:35;;;;;;;2.72;1.60;;;15.10;1.40;;;16.14;100.00;95886.03;648252;216;31784;-70
2022/08/07 03:08:16;;;;;;;1.58;1.27;;;15.10;1.40;;;16.14;100.00;95880.91;645422;216;31513;-71
2022/08/07 03:10:58;;;;;;;1.40;1.10;;;15.10;1.40;;;16.05;100.00;95884.16;651703;216;31549;-71
2022/08/07 03:13:39;;;;;;;0.98;0.88;;;15.00;1.40;;;16.06;100.00;95883.15;651824;212;31573;-70
2022/08/07 03:16:21;;;;;;;3.35;1.15;;;15.00;1.40;;;16.06;100.00;95884.53;636177;212;31756;-70
2022/08/07 03:19:03;;;;;;;1.35;1.25;;;14.90;1.40;;;16.02;100.00;95882.21;645374;212;31512;-70
2022/08/07 03:21:45;;;;;;;2.30;1.73;;;14.80;1.40;;;15.99;100.00;95886.06;650473;212;31477;-71
2022/08/07 03:24:29;;;;;;;1.95;1.62;;;14.80;1.40;;;15.99;100.00;95888.70;644434;212;31554;-71
2022/08/07 03:27:11;;;;;;;1.87;1.05;;;14.80;1.40;;;16.01;100.00;95890.19;649412;212;31510;-72
2022/08/07 03:29:53;;;;;;;2.50;1.40;;;14.80;1.40;;;15.97;100.00;95885.37;650009;212;32117;-72
2022/08/07 03:35:51;;;;;;;1.70;1.20;;;14.70;1.40;;;15.94;100.00;95894.11;646249;212;31542;-70
2022/08/07 03:38:33;;;;;;;2.00;1.33;;;14.70;1.40;;;15.90;100.00;95892.44;645775;216;31626;-70
2022/08/07 03:41:15;;;;;;;2.70;2.50;;;14.70;1.40;;;15.87;100.00;95889.22;647754;216;31827;-70
2022/08/07 03:43:57;;;;;;;2.10;1.60;;;14.60;1.40;;;15.84;100.00;95889.98;648689;216;31580;-71
2022/08/07 03:46:40;;;;;;;1.77;1.45;;;14.60;1.40;;;15.76;100.00;95888.87;618555;226;32835;-71
2022/08/07 03:49:20;;;;;;;2.72;1.92;;;14.50;1.40;;;15.68;100.00;95883.95;646404;216;31536;-71
2022/08/07 03:52:02;;;;;;;3.85;2.40;;;14.40;1.40;;;15.60;100.00;95881.20;653558;216;31566;-71
2022/08/07 03:54:44;;;;;;;2.30;1.50;;;14.40;1.40;;;15.60;100.00;95880.61;644615;216;31503;-70
2022/08/07 03:57:26;;;;;;;1.42;1.33;;;14.30;1.40;;;15.67;100.00;95882.84;623287;226;31995;-70
2022/08/07 04:00:13;;;;;;;1.37;1.27;;;14.30;1.40;;;15.51;100.00;95878.81;650296;216;31749;-71
2022/08/07 04:02:54;;;;;;;1.48;1.02;;;14.30;1.40;;;15.54;100.00;95876.37;623403;226;31874;-71
2022/08/07 04:05:36;;;;;;;2.50;1.90;;;14.30;1.40;;;15.42;100.00;95873.23;647074;212;31558;-72
2022/08/07 04:08:17;;;;;;;2.55;1.15;;;14.30;1.40;;;15.46;100.00;95874.66;647718;212;31661;-70
2022/08/07 04:10:59;;;;;;;2.20;2.00;;;14.30;1.40;;;15.43;100.00;95879.28;649507;212;31531;-70
2022/08/07 04:13:42;;;;;;;2.85;1.77;;;14.20;1.40;;;15.49;100.00;95880.95;649785;212;31531;-70
2022/08/07 04:16:23;;;;;;;2.60;1.92;;;14.20;1.40;;;15.45;100.00;95875.02;634764;212;31685;-70
2022/08/07 04:19:08;;;;;;;2.28;2.08;;;14.20;1.40;;;15.59;100.00;95872.37;645641;212;31503;-70
2022/08/07 04:21:50;;;;;;;1.48;1.37;;;14.30;1.40;;;15.56;100.00;95868.46;616522;226;32664;-70
2022/08/07 04:24:32;;;;;;;2.12;1.75;;;14.20;1.40;;;15.60;100.00;95870.66;648059;216;31586;-73
2022/08/07 04:27:17;;;;;;;3.20;2.30;;;14.30;1.40;;;15.65;100.00;95871.06;648736;212;31610;-71
2022/08/07 04:29:58;;;;;;;3.30;1.80;;;14.30;1.40;;;15.68;100.00;95873.13;643844;216;31582;-71
2022/08/07 04:32:40;;;;;;;3.83;1.35;;;14.30;1.40;;;15.54;100.00;95875.38;647243;212;31548;-70
2022/08/07 04:35:52;;;;;;;2.35;2.15;;;14.40;1.40;;;15.59;100.00;95876.00;650818;216;31564;-70
2022/08/07 04:38:36;;;;;;;2.75;2.17;;;14.40;1.40;;;15.66;100.00;95874.78;644999;212;32074;-70
2022/08/07 04:41:18;;;;;;;3.37;2.60;;;14.40;1.40;;;15.71;100.00;95877.86;649261;212;42150;-71
2022/08/07 04:44:00;;;;;;;2.60;1.90;;;14.50;1.40;;;15.79;100.00;95882.44;649734;212;31590;-71
2022/08/07 04:46:48;;;;;;;1.77;1.67;;;14.50;1.40;;;15.67;100.00;95873.77;650263;216;31511;-70
2022/08/07 04:52:26;;;;;;;2.10;1.60;;;14.60;1.40;;;15.85;100.00;95875.94;644565;216;42196;-72
2022/08/07 04:57:49;;;;;;;3.17;2.57;;;14.60;1.40;;;15.96;100.00;95868.05;648826;212;42790;-70
2022/08/07 05:00:34;;;;;;;1.80;1.70;;;14.70;1.40;;;16.12;100.00;95864.70;642458;216;32103;-70
2022/08/07 05:03:23;;;;;;;2.28;1.95;;;14.70;1.40;;;16.28;100.00;95871.94;651230;212;31715;-70
2022/08/07 05:06:10;;;;;;;1.60;1.40;;;14.90;1.40;;;16.35;100.00;95874.39;627418;222;31729;-70
2022/08/07 05:11:30;;;;;;;2.30;1.60;;;15.00;1.40;;;16.37;100.00;95873.22;646032;212;31571;-70
2022/08/07 05:14:22;;;;;;;1.60;1.50;;;15.10;1.40;;;16.52;100.00;95871.60;648936;212;32175;-70
2022/08/07 05:17:04;;;;;;;2.40;1.60;;;15.20;1.40;;;16.49;100.00;95872.21;644842;216;31549;-71
2022/08/07 05:19:47;;;;;;;3.00;1.58;;;15.20;1.40;;;16.54;100.00;95876.73;620827;226;31954;-70
2022/08/07 05:22:31;;;;;;;1.87;1.67;;;15.20;1.40;;;16.55;100.00;95880.80;653210;216;31527;-71
2022/08/07 05:25:13;;;;;;;2.45;1.70;;;15.20;1.40;;;16.57;100.00;95877.95;648765;212;31869;-70
2022/08/07 05:27:54;;;;;;;3.25;1.75;;;15.20;1.40;;;16.65;100.00;95880.47;645553;216;31535;-71
2022/08/07 05:30:36;;;;;;;1.62;1.23;;;15.30;1.40;;;16.73;100.00;95882.08;645602;212;31586;-70
2022/08/07 05:35:51;;;;;;;3.20;2.10;;;15.40;1.40;;;16.82;100.00;95881.09;644787;216;31811;-71
2022/08/07 05:38:35;;;;;;;2.90;1.85;;;15.50;1.40;;;16.98;100.00;95884.69;648027;212;31554;-70
2022/08/07 05:41:17;;;;;;;3.00;1.90;;;15.50;1.40;;;17.20;100.00;95887.44;649674;212;31536;-70
2022/08/07 05:43:58;;;;;;;2.10;1.70;;;15.60;1.40;;;17.24;100.00;95887.52;645145;212;32137;-71
2022/08/07 05:46:40;;;;;;;1.70;1.33;;;15.60;1.40;;;17.19;100.00;95888.53;648028;216;31494;-70
2022/08/07 05:49:22;;;;;;;1.37;1.27;;;15.70;1.40;;;17.30;100.00;95884.71;648551;216;31524;-71
2022/08/07 05:52:04;;;;;;;2.70;1.95;;;15.80;1.40;;;17.36;100.00;95889.44;647957;216;32124;-70
2022/08/07 05:54:45;;;;;;;1.95;1.40;;;15.80;1.40;;;17.47;100.00;95887.84;617277;222;31994;-71
2022/08/07 05:57:33;;;;;;;1.80;1.40;;;15.80;1.40;;;17.30;100.00;95889.36;619419;222;33166;-76
2022/08/07 06:00:21;;;;;;;1.73;1.30;;;15.80;1.40;;;17.45;100.00;95888.80;643479;216;31543;-70
2022/08/07 06:03:02;;;;;;;1.40;1.30;;;16.00;1.40;;;17.32;100.00;95892.14;646088;216;31564;-71
2022/08/07 06:05:44;;;;;;;2.12;1.92;;;16.10;1.40;;;17.60;100.00;95894.35;648484;216;31937;-71
2022/08/07 06:08:32;;;;;;;1.45;1.35;;;16.30;1.40;;;17.59;100.00;95893.61;643763;216;31597;-76
2022/08/07 06:11:19;;;;;;;1.77;1.12;;;16.40;1.40;;;17.51;100.00;95899.39;649165;212;31528;-71
2022/08/07 06:16:03;;;;;;;4.60;1.60;;;16.60;1.40;;;17.95;100.00;95898.98;611539;226;32069;-71
2022/08/07 06:18:47;;;;;;;1.48;1.37;;;16.70;1.40;;;18.10;100.00;95899.66;649895;216;31621;-70
2022/08/07 06:21:29;;;;;;;1.95;1.75;;;16.70;1.40;;;18.15;100.00;95902.17;650160;216;31536;-71
2022/08/07 06:24:14;;;;;;;1.50;1.20;;;16.70;1.40;;;18.20;100.00;95906.51;647776;212;31828;-70
2022/08/07 06:26:55;;;;;;;2.42;1.40;;;16.70;1.40;;;18.04;100.00;95901.20;625137;226;31835;-70
2022/08/07 06:29:37;;;;;;;1.73;1.55;;;16.80;1.40;;;18.13;100.00;95903.02;645130;216;31535;-70
2022/08/07 06:32:19;;;;;;;1.58;1.48;;;16.80;1.40;;;18.30;100.00;95906.67;649081;216;31562;-70
2022/08/07 06:35:51;;;;;;;1.30;1.20;;;17.00;1.40;;;18.50;100.00;95904.23;647411;216;31566;-70
2022/08/07 06:38:33;;;;;;;1.90;1.20;;;16.90;1.40;;;18.20;100.00;95908.61;646231;212;31605;-70
2022/08/07 06:41:17;;;;;;;1.77;1.42;;;16.90;1.40;;;18.46;100.00;95908.98;647147;216;31498;-70
2022/08/07 06:44:02;;;;;;;1.60;1.50;;;17.00;1.40;;;18.60;100.00;95910.70;646548;212;31972;-71
2022/08/07 06:46:44;;;;;;;1.77;1.02;;;17.20;1.40;;;18.74;100.00;95907.78;645592;216;33121;-70
2022/08/07 06:49:25;;;;;;;2.60;1.50;;;17.20;1.40;;;18.62;100.00;95905.68;645402;216;31574;-70
2022/08/07 06:52:07;;;;;;;1.50;1.30;;;17.40;1.40;;;18.82;100.00;95909.77;648054;212;31551;-69
2022/08/07 06:54:49;;;;;;;1.20;1.10;;;17.60;1.40;;;19.09;100.00;95908.16;643697;212;32169;-69
2022/08/07 06:57:31;;;;;;;1.83;1.40;;;18.00;1.40;;;19.52;100.00;95910.48;647212;216;42133;-70
2022/08/07 07:00:13;;;;;;;1.23;1.10;;;18.30;1.40;;;20.39;100.00;95905.70;645487;213;31520;-69
2022/08/07 07:02:55;;;;;;;1.40;1.20;;;18.60;1.40;;;19.71;100.00;95909.44;618866;222;31944;-69
2022/08/07 07:06:02;;;;;;;1.85;1.25;;;18.70;1.40;;;20.70;100.00;95904.77;647320;212;42200;-69
2022/08/07 07:08:44;;;;;;;1.40;1.02;;;19.30;1.40;;;21.27;100.00;95902.32;645951;212;31586;-69
2022/08/07 07:11:26;;;;;;;1.40;1.30;;;19.70;1.40;;;21.88;100.00;95908.30;645737;216;31752;-69
2022/08/07 07:14:11;;;;;;;1.50;1.00;;;19.90;1.40;;;21.86;100.00;95906.99;654464;212;31533;-69
2022/08/07 07:16:52;;;;;;;1.63;1.10;;;19.80;1.40;;;21.15;100.00;95908.13;616717;226;32001;-69
2022/08/07 07:19:34;;;;;;;2.80;1.98;;;19.60;1.40;;;21.32;100.00;95901.31;649910;216;31778;-69
2022/08/07 07:22:16;;;;;;;2.03;1.25;;;19.80;1.40;;;21.49;100.00;95899.72;649953;216;31662;-69
2022/08/07 07:24:57;;;;;;;1.10;1.00;;;19.90;1.40;;;22.16;100.00;95898.79;645940;216;31520;-70
2022/08/07 07:27:40;;;;;;;1.60;1.50;;;20.20;1.40;;;21.83;100.00;95903.03;618274;226;33005;-69
2022/08/07 07:30:22;;;;;;;1.55;1.02;;;19.90;1.40;;;21.56;100.00;95894.47;646955;216;31522;-69
2022/08/07 07:35:51;;;;;;;2.67;1.20;;;19.50;1.40;;;20.76;100.00;95896.50;647935;212;31578;-69
2022/08/07 07:38:33;;;;;;;1.83;1.30;;;19.10;1.40;;;21.08;100.00;95890.64;648804;216;32873;-70
2022/08/07 07:41:18;;;;;;;0.90;0.90;;;19.20;1.40;;;21.43;100.00;95890.55;647660;216;31532;-69
2022/08/07 07:43:59;;;;;;;1.30;1.20;;;19.40;1.40;;;22.09;100.00;95892.67;647428;216;31979;-70
2022/08/07 07:46:44;;;;;;;1.47;1.30;;;19.70;1.40;;;22.24;100.00;95885.81;618733;222;32795;-69
2022/08/07 07:49:27;;;;;;;1.20;1.10;;;19.80;1.40;;;22.09;100.00;95884.47;646420;216;31673;-70
2022/08/07 07:52:11;;;;;;;1.10;0.90;;;19.70;1.40;;;21.49;100.00;95885.52;647643;212;31633;-70
2022/08/07 07:54:52;;;;;;;1.48;1.00;;;19.70;1.40;;;21.57;100.00;95883.20;647114;216;31498;-69
2022/08/07 07:57:34;;;;;;;1.50;1.10;;;19.60;1.40;;;21.85;100.00;95886.58;646700;216;32215;-69
2022/08/07 08:00:18;;;;;;;1.90;1.20;;;19.60;1.40;;;21.93;100.00;95879.98;646121;216;32057;-70
2022/08/07 08:03:01;;;;;;;1.70;1.30;;;19.90;1.40;;;21.55;100.00;95879.66;647495;216;31557;-69
2022/08/07 08:05:42;;;;;;;1.60;1.10;;;19.70;1.40;;;21.60;100.00;95880.33;649345;216;31531;-70
2022/08/07 08:08:24;;;;;;;1.52;1.30;;;19.90;1.40;;;22.21;100.00;95878.95;647177;216;31485;-70
2022/08/07 08:11:06;;;;;;;1.53;1.30;;;20.40;1.40;;;21.49;100.00;95883.78;647450;216;31554;-69
2022/08/07 08:13:48;;;;;;;1.20;1.10;;;20.40;1.40;;;22.18;100.00;95885.27;644813;212;31801;-69
2022/08/07 08:16:32;;;;;;;1.40;1.10;;;20.60;1.40;;;22.04;100.00;95879.86;636383;216;43554;-69
2022/08/07 08:19:13;;;;;;;4.10;1.10;;;20.50;1.40;;;22.18;100.00;95877.36;648172;212;31577;-69
2022/08/07 08:27:33;;;;;;;1.30;1.20;;;20.30;1.40;;;21.52;100.00;95873.25;644716;216;31677;-69
2022/08/07 08:30:15;;;;;;;1.42;1.00;;;19.90;1.40;;;21.73;100.00;95872.16;646684;216;42143;-70
2022/08/07 08:32:57;;;;;;;1.23;1.12;;;19.70;1.40;;;21.16;100.00;95875.94;646108;216;42258;-69
2022/08/07 08:38:37;;;;;;;1.30;1.00;;;19.50;1.40;;;20.81;100.00;95878.67;646966;216;31509;-69
2022/08/07 08:41:27;;;;;;;1.20;0.80;;;19.60;1.40;;;20.36;100.00;95886.94;646858;216;42350;-69
2022/08/07 08:44:19;;;;;;;1.60;1.00;;;19.60;1.40;;;20.32;100.00;95891.44;648080;213;31698;-69
2022/08/07 08:49:46;;;;;;;1.60;1.05;;;20.80;1.40;;;22.07;100.00;95880.75;647397;212;33586;-69
2022/08/07 08:55:10;;;;;;;1.92;0.93;;;20.60;1.40;;;21.99;99.11;95887.56;646383;212;31550;-70
2022/08/07 08:58:04;;;;;;;1.23;0.95;;;20.60;1.40;;;21.88;100.00;95887.14;644088;216;32029;-69
2022/08/07 09:00:49;;;;;;;1.12;0.88;;;20.80;1.40;;;22.14;100.00;95883.59;618861;222;31848;-69
2022/08/07 09:03:34;;;;;;;2.90;1.55;;;20.90;1.40;;;22.31;100.00;95885.63;649539;216;32182;-69
2022/08/07 09:06:31;;;;;;;1.20;1.02;;;21.10;1.40;;;22.33;98.59;95884.16;645428;216;31670;-69
2022/08/07 09:09:23;;;;;;;1.30;1.20;;;21.60;1.40;;;23.50;92.83;95883.60;619615;225;31934;-69
2022/08/07 09:12:20;;;;;;;1.90;1.60;;;22.20;1.40;;;23.84;91.99;95881.86;645619;216;31677;-69
2022/08/07 09:15:34;;;;;;;1.60;1.25;;;22.80;1.40;;;24.64;88.47;95878.09;642102;216;32263;-69
2022/08/07 09:18:36;;;;;;;1.60;1.10;;;23.50;1.40;;;25.47;83.63;95875.34;645251;216;42250;-69
2022/08/07 09:21:28;;;;;;;1.60;1.17;;;25.30;1.40;;;26.19;79.64;95874.28;617869;226;42671;-69
2022/08/07 09:24:34;;;;;;;1.30;1.20;;;27.40;1.40;;;28.14;76.92;95869.91;647248;216;31531;-69
2022/08/07 09:27:24;;;;;;;1.20;1.08;;;29.30;1.40;;;28.89;65.50;95874.62;650015;216;32170;-70
2022/08/07 09:30:07;;;;;;;1.77;1.20;;;29.40;1.40;;;28.52;67.14;95869.77;643918;216;31512;-70
2022/08/07 09:32:56;;;;;;;1.50;1.20;;;28.10;1.40;;;28.72;66.27;95872.98;644803;212;31500;-69
2022/08/07 09:35:56;;;;;;;1.15;1.05;;;27.40;1.40;;;29.81;66.65;95871.27;648097;212;31491;-70
2022/08/07 09:39:09;;;;;;;1.25;1.10;;;29.00;1.40;;;29.77;64.29;95865.04;648196;216;32215;-69
2022/08/07 09:42:02;;;;;;;1.05;0.95;;;30.00;1.40;;;31.30;60.56;95857.63;647026;216;31597;-70
2022/08/07 09:45:13;;;;;;;0.90;0.90;;;30.50;1.40;;;30.74;55.76;95851.81;645668;216;31662;-69
2022/08/07 09:50:57;;;;;;;2.37;1.50;;;29.10;1.40;;;31.88;55.71;95847.48;645749;216;32253;-69
2022/08/07 09:53:41;;;;;;;1.40;1.30;;;29.50;1.40;;;32.22;54.76;95839.13;649065;216;32550;-70
2022/08/07 09:56:43;;;;;;;1.08;1.00;;;31.10;1.40;;;30.53;55.83;95842.08;648338;212;42303;-70
2022/08/07 09:59:42;;;;;;;2.20;1.17;;;28.50;1.40;;;27.34;59.96;95855.47;648918;216;31651;-69
2022/08/07 10:02:32;;;;;;;1.33;1.23;;;25.10;1.40;;;25.16;64.58;95853.27;648351;216;31766;-69
2022/08/07 10:08:10;;;;;;;1.20;1.10;;;27.10;1.40;;;28.74;62.67;95850.98;648435;212;32162;-70
2022/08/07 10:11:07;;;;;;;1.33;1.23;;;29.60;1.40;;;30.79;56.73;95830.13;645608;216;31528;-70
2022/08/07 10:16:41;;;;;;;1.70;1.20;;;26.40;1.40;;;29.53;57.47;95837.16;634669;216;32307;-70
2022/08/07 10:19:52;;;;;;;1.50;1.10;;;27.90;1.40;;;26.72;60.01;95841.30;646445;216;42253;-69
2022/08/07 10:22:58;;;;;;;1.30;1.20;;;26.60;1.40;;;29.11;62.73;95835.95;646259;216;42789;-70
2022/08/07 10:26:00;;;;;;;1.27;1.10;;;27.70;1.40;;;29.35;60.89;95829.18;646240;212;42775;-70
2022/08/07 10:29:14;;;;;;;2.60;1.00;;;28.90;1.40;;;31.84;55.27;95822.89;647887;216;42283;-70
2022/08/07 10:31:58;;;;;;;1.60;1.33;;;28.70;1.40;;;29.09;59.86;95837.22;645751;215;31730;-70
2022/08/07 10:36:04;;;;;;;1.15;1.05;;;26.20;1.40;;;27.83;64.73;95822.53;650643;216;31758;-70
2022/08/07 10:39:08;;;;;;;1.15;1.02;;;27.40;1.40;;;30.07;55.55;95822.98;618985;226;31734;-69
2022/08/07 10:41:55;;;;;;;2.00;1.17;;;28.80;1.40;;;32.24;52.22;95816.73;644021;212;31639;-70
2022/08/07 10:44:50;;;;;;;1.50;1.10;;;30.10;1.40;;;30.55;53.34;95816.66;650753;216;31745;-70
2022/08/07 10:47:42;;;;;;;1.30;1.20;;;29.40;1.40;;;32.11;49.51;95810.06;646003;216;31682;-64
2022/08/07 10:50:29;;;;;;;2.20;1.00;;;30.30;1.40;;;33.61;47.70;95812.56;649602;216;31922;-70
2022/08/07 10:53:16;;;;;;;1.20;1.02;;;30.90;1.40;;;32.94;47.96;95814.57;649391;212;31539;-70
2022/08/07 10:56:20;;;;;;;1.30;1.20;;;30.30;1.40;;;33.74;47.78;95808.14;618326;226;31885;-70
2022/08/07 10:59:26;;;;;;;2.50;1.17;;;30.20;1.40;;;32.63;48.54;95814.19;618798;225;42730;-70
2022/08/07 11:02:34;;;;;;;1.50;1.40;;;28.60;1.40;;;32.37;49.56;95811.44;646922;216;31646;-71
2022/08/07 11:05:46;;;;;;;1.20;1.10;;;28.00;1.40;;;33.80;47.33;95804.57;647733;216;31535;-70
2022/08/07 11:08:39;;;;;;;1.83;1.15;;;28.60;1.40;;;33.04;48.47;95805.51;646729;216;31475;-71
2022/08/07 11:11:36;;;;;;;1.30;1.20;;;29.70;1.40;;;34.38;45.69;95804.19;649260;216;32315;-70
2022/08/07 11:14:21;;;;;;;1.10;1.00;;;31.30;1.40;;;35.56;44.94;95796.80;648536;216;31483;-70
2022/08/07 11:17:03;;;;;;;1.40;1.12;;;31.30;1.40;;;34.95;43.00;95795.59;645261;212;31536;-70
2022/08/07 11:19:57;;;;;;;1.50;0.90;;;31.00;1.40;;;36.80;42.12;95786.19;646735;216;31491;-70
2022/08/07 11:22:42;;;;;;;1.30;1.20;;;31.60;1.40;;;37.07;42.51;95791.44;644938;216;31564;-71
2022/08/07 11:25:25;;;;;;;1.20;1.10;;;32.10;1.40;;;33.30;45.33;95790.92;645505;216;31591;-71
2022/08/07 11:28:10;;;;;;;0.93;0.93;;;30.30;1.40;;;35.02;45.53;95781.97;649183;215;31651;-70
2022/08/07 11:30:57;;;;;;;1.27;1.10;;;31.30;1.40;;;34.74;44.50;95775.70;650899;216;31573;-70
2022/08/07 11:35:54;;;;;;;1.20;1.10;;;30.80;1.40;;;37.28;42.56;95773.71;650580;216;31543;-72
2022/08/07 11:38:39;;;;;;;0.93;0.93;;;31.30;1.40;;;34.38;41.59;95785.32;651026;212;31519;-71
2022/08/07 11:41:21;;;;;;;1.57;1.23;;;30.10;1.40;;;34.06;43.46;95778.00;646559;216;31522;-71
2022/08/07 11:44:27;;;;;;;1.35;1.20;;;30.60;1.40;;;36.14;40.23;95776.52;645030;213;31933;-71
2022/08/07 11:47:09;;;;;;;1.10;1.00;;;31.30;1.40;;;33.65;45.45;95780.58;646246;216;31947;-71
2022/08/07 11:50:24;;;;;;;1.95;1.65;;;30.00;1.40;;;31.59;44.61;95778.03;647928;216;31605;-70
2022/08/07 11:53:27;;;;;;;1.50;1.15;;;28.70;1.40;;;30.05;47.99;95781.78;646900;216;31513;-70
2022/08/07 11:56:20;;;;;;;0.90;0.90;;;28.10;1.40;;;35.48;42.75;95767.99;646173;216;31645;-72
2022/08/07 11:59:30;;;;;;;1.30;1.05;;;31.20;1.40;;;33.63;44.37;95773.32;645164;212;31529;-71
2022/08/07 12:02:41;;;;;;;2.00;1.20;;;30.20;1.40;;;34.40;43.57;95769.43;646517;212;31526;-71
2022/08/07 12:05:45;;;;;;;1.30;1.20;;;29.00;1.40;;;29.84;49.58;95770.03;645494;216;31577;-70
2022/08/07 12:08:30;;;;;;;1.23;1.12;;;28.70;1.40;;;31.29;48.25;95767.42;646702;212;31605;-70
2022/08/07 12:14:10;;;;;;;1.05;1.05;;;28.70;1.40;;;32.76;46.03;95758.52;645627;216;31775;-71
2022/08/07 12:19:46;;;;;;;1.23;1.10;;;30.60;1.40;;;37.57;40.21;95752.30;648342;216;31622;-72
2022/08/07 12:22:29;;;;;;;1.30;1.10;;;32.20;1.40;;;39.24;37.34;95742.14;646970;212;32028;-71
2022/08/07 12:28:00;;;;;;;1.80;1.35;;;32.10;1.40;;;31.68;43.52;95759.66;647758;212;31773;-71
2022/08/07 12:30:42;;;;;;;1.20;1.10;;;28.50;1.40;;;36.46;40.43;95749.98;617952;226;31910;-71
2022/08/07 12:35:51;;;;;;;1.70;1.10;;;29.00;1.40;;;32.44;43.58;95763.55;644811;216;31608;-70
2022/08/07 12:38:32;;;;;;;2.00;1.30;;;28.70;1.40;;;35.94;42.31;95749.38;647857;216;31597;-70
2022/08/07 12:41:14;;;;;;;1.23;1.12;;;29.50;1.40;;;29.43;47.34;95757.55;650057;216;31808;-72
2022/08/07 12:43:56;;;;;;;1.35;1.25;;;27.30;1.40;;;34.51;41.04;95746.14;649343;212;32135;-70
2022/08/07 12:46:43;;;;;;;3.90;1.50;;;29.60;1.40;;;35.34;41.99;95738.40;645681;215;31651;-72
2022/08/07 12:49:55;;;;;;;1.42;1.20;;;30.40;1.40;;;35.30;41.13;95739.61;647348;216;31784;-71